Time;durP1;ratioP1;P1;durP2;ratioP2;P2;SDS_P1;SDS_P2;PMS_P1;PMS_P2;Temp;Humidity;BMP_temperature;BMP_pressure;BME280_temperature;BME280_humidity;BME280_pressure;Samples;Min_cycle;Max_cycle;Signal;HPM_P1;HPM_P2
2022/06/28 00:00:37;;;;;;;3.80;2.20;;;;;;;;;;5025415;28;20097;-62
2022/06/28 00:03:07;;;;;;;5.82;2.05;;;;;;;;;;5023531;28;20042;-65
2022/06/28 00:05:33;;;;;;;6.28;2.10;;;;;;;;;;5025125;28;20053;-62
2022/06/28 00:08:06;;;;;;;4.10;2.25;;;;;;;;;;5026036;28;20120;-64
2022/06/28 00:10:40;;;;;;;6.45;2.30;;;;;;;;;;5029868;28;20056;-61
2022/06/28 00:13:06;;;;;;;8.57;2.17;;;;;;;;;;5023585;28;20057;-61
2022/06/28 00:18:16;;;;;;;5.30;2.03;;;;;;;;;;5023908;28;20041;-62
2022/06/28 00:20:42;;;;;;;4.28;1.98;;;;;;;;;;5018741;28;20063;-62
2022/06/28 00:23:08;;;;;;;5.38;2.22;;;;;;;;;;5026297;28;20563;-61
2022/06/28 00:25:34;;;;;;;4.07;2.30;;;;;;;;;;5018206;28;20412;-62
2022/06/28 00:28:00;;;;;;;5.25;1.98;;;;;;;;;;5023156;28;20069;-61
2022/06/28 00:30:26;;;;;;;5.45;2.50;;;;;;;;;;5024485;28;20108;-62
2022/06/28 00:32:52;;;;;;;5.25;2.10;;;;;;;;;;5029292;28;20450;-63
2022/06/28 00:35:17;;;;;;;5.95;2.08;;;;;;;;;;5026949;28;20054;-61
2022/06/28 00:37:44;;;;;;;4.85;2.28;;;;;;;;;;5038129;28;20048;-59
2022/06/28 00:40:10;;;;;;;5.15;2.08;;;;;;;;;;5031149;28;20068;-62
2022/06/28 00:42:38;;;;;;;7.53;2.53;;;;;;;;;;5030929;28;20072;-63
2022/06/28 00:45:06;;;;;;;6.97;3.22;;;;;;;;;;5027564;28;20069;-61
2022/06/28 00:47:32;;;;;;;7.53;2.60;;;;;;;;;;5032819;28;20056;-61
2022/06/28 00:49:59;;;;;;;5.55;2.50;;;;;;;;;;5030240;28;20121;-61
2022/06/28 00:52:25;;;;;;;5.13;2.78;;;;;;;;;;5031075;28;20057;-62
2022/06/28 00:54:52;;;;;;;6.65;2.53;;;;;;;;;;5030655;28;20439;-63
2022/06/28 00:57:17;;;;;;;9.18;2.67;;;;;;;;;;5028295;28;20049;-62
2022/06/28 00:59:43;;;;;;;11.15;2.80;;;;;;;;;;5031058;28;20078;-60
2022/06/28 01:02:09;;;;;;;4.78;2.58;;;;;;;;;;5030470;28;20363;-62
2022/06/28 01:04:36;;;;;;;4.07;2.63;;;;;;;;;;5031137;28;20102;-60
2022/06/28 01:07:02;;;;;;;9.90;3.80;;;;;;;;;;5029999;28;20487;-63
2022/06/28 01:09:27;;;;;;;9.23;2.78;;;;;;;;;;5033449;28;20042;-61
2022/06/28 01:11:54;;;;;;;7.97;2.75;;;;;;;;;;5031034;28;20137;-61
2022/06/28 01:14:20;;;;;;;7.00;2.67;;;;;;;;;;5030722;28;20084;-61
2022/06/28 01:16:46;;;;;;;6.82;2.75;;;;;;;;;;5030624;28;20081;-64
2022/06/28 01:19:14;;;;;;;7.40;2.83;;;;;;;;;;5031369;28;20391;-64
2022/06/28 01:21:42;;;;;;;8.93;3.00;;;;;;;;;;5030137;28;20056;-63
2022/06/28 01:24:08;;;;;;;7.82;2.90;;;;;;;;;;5030199;28;20041;-61
2022/06/28 01:26:34;;;;;;;4.95;2.78;;;;;;;;;;5030382;28;20615;-63
2022/06/28 01:29:01;;;;;;;6.43;3.17;;;;;;;;;;5029468;28;20044;-62
2022/06/28 01:31:27;;;;;;;5.10;3.00;;;;;;;;;;5028050;28;20099;-63
2022/06/28 01:33:53;;;;;;;5.40;2.75;;;;;;;;;;5029108;28;20052;-67
2022/06/28 01:36:20;;;;;;;8.38;2.63;;;;;;;;;;5030350;28;20507;-61
2022/06/28 01:38:46;;;;;;;5.07;2.90;;;;;;;;;;5031111;28;20096;-64
2022/06/28 01:41:33;;;;;;;8.00;2.80;;;;;;;;;;5030096;28;20056;-61
2022/06/28 01:44:00;;;;;;;8.75;2.65;;;;;;;;;;5027795;28;20038;-62
2022/06/28 01:46:27;;;;;;;6.75;3.10;;;;;;;;;;5032512;28;20740;-62
2022/06/28 01:48:54;;;;;;;5.20;3.00;;;;;;;;;;5031868;28;20050;-62
2022/06/28 01:51:20;;;;;;;7.90;3.08;;;;;;;;;;5029108;28;20127;-62
2022/06/28 01:53:45;;;;;;;5.68;2.60;;;;;;;;;;5024382;28;20521;-72
2022/06/28 01:56:11;;;;;;;5.53;2.70;;;;;;;;;;5028345;28;20042;-62
2022/06/28 01:58:39;;;;;;;6.00;2.90;;;;;;;;;;5028983;28;20380;-61
2022/06/28 02:01:05;;;;;;;8.82;3.10;;;;;;;;;;5026484;28;20046;-63
2022/06/28 02:03:31;;;;;;;5.88;2.47;;;;;;;;;;5024447;28;20045;-64
2022/06/28 02:05:57;;;;;;;8.43;2.60;;;;;;;;;;5028642;28;20045;-63
2022/06/28 02:08:23;;;;;;;5.72;2.75;;;;;;;;;;5027634;28;20882;-61
2022/06/28 02:10:49;;;;;;;8.38;2.67;;;;;;;;;;5029291;28;20049;-64
2022/06/28 02:13:15;;;;;;;7.03;2.92;;;;;;;;;;5027620;28;20096;-62
2022/06/28 02:15:40;;;;;;;6.07;2.90;;;;;;;;;;5026897;28;20462;-62
2022/06/28 02:18:06;;;;;;;7.15;3.00;;;;;;;;;;5029204;28;20513;-62
2022/06/28 02:20:33;;;;;;;5.22;2.70;;;;;;;;;;5030372;28;20064;-62
2022/06/28 02:22:59;;;;;;;5.95;2.75;;;;;;;;;;5028518;28;20489;-63
2022/06/28 02:25:25;;;;;;;4.22;2.35;;;;;;;;;;5028476;28;20128;-61
2022/06/28 02:27:51;;;;;;;7.07;2.50;;;;;;;;;;5028888;28;20068;-63
2022/06/28 02:30:18;;;;;;;5.75;2.50;;;;;;;;;;5030356;28;20037;-62
2022/06/28 02:32:44;;;;;;;5.38;2.65;;;;;;;;;;5029232;28;20136;-62
2022/06/28 02:40:39;;;;;;;9.90;2.58;;;;;;;;;;5026490;28;20120;-60
2022/06/28 02:43:06;;;;;;;8.93;2.55;;;;;;;;;;5028356;28;20510;-61
2022/06/28 02:45:34;;;;;;;8.00;3.10;;;;;;;;;;5030892;28;20081;-63
2022/06/28 02:48:00;;;;;;;6.30;2.70;;;;;;;;;;5020876;28;20062;-62
2022/06/28 02:50:27;;;;;;;4.20;2.40;;;;;;;;;;5026872;28;20095;-64
2022/06/28 02:52:53;;;;;;;4.93;2.50;;;;;;;;;;5023742;28;20491;-61
2022/06/28 02:55:19;;;;;;;6.82;2.30;;;;;;;;;;5022938;28;20068;-62
2022/06/28 02:57:45;;;;;;;5.25;2.45;;;;;;;;;;5028683;28;20053;-62
2022/06/28 03:00:18;;;;;;;7.90;2.80;;;;;;;;;;5031230;28;20510;-61
2022/06/28 03:02:46;;;;;;;11.55;2.75;;;;;;;;;;5042154;28;20140;-64
2022/06/28 03:05:14;;;;;;;4.88;2.30;;;;;;;;;;5031912;28;20067;-63
2022/06/28 03:07:41;;;;;;;6.45;2.72;;;;;;;;;;5030269;28;20488;-61
2022/06/28 03:10:08;;;;;;;4.60;2.70;;;;;;;;;;5029887;28;20564;-62
2022/06/28 03:12:34;;;;;;;11.75;3.30;;;;;;;;;;5022735;28;20085;-64
2022/06/28 03:15:00;;;;;;;6.13;2.60;;;;;;;;;;5024211;28;20052;-61
2022/06/28 03:17:27;;;;;;;5.47;2.60;;;;;;;;;;5028673;28;20050;-60
2022/06/28 03:19:52;;;;;;;6.95;2.65;;;;;;;;;;5030010;28;20128;-62
2022/06/28 03:22:18;;;;;;;7.70;2.90;;;;;;;;;;5030840;28;20037;-62
2022/06/28 03:24:44;;;;;;;6.43;2.80;;;;;;;;;;5030020;28;20068;-64
2022/06/28 03:27:10;;;;;;;6.13;2.72;;;;;;;;;;5033698;28;20507;-62
2022/06/28 03:29:36;;;;;;;6.82;3.08;;;;;;;;;;5031641;28;20128;-60
2022/06/28 03:32:02;;;;;;;7.95;2.60;;;;;;;;;;5026809;28;20056;-60
2022/06/28 03:34:28;;;;;;;6.80;2.95;;;;;;;;;;5026232;28;20049;-62
2022/06/28 03:36:55;;;;;;;7.88;2.88;;;;;;;;;;5029290;28;20056;-62
2022/06/28 03:39:21;;;;;;;6.03;3.00;;;;;;;;;;5029442;28;20060;-63
2022/06/28 03:41:47;;;;;;;9.05;2.95;;;;;;;;;;5028714;28;20042;-61
2022/06/28 03:44:13;;;;;;;8.60;2.95;;;;;;;;;;5028708;28;20046;-62
2022/06/28 03:46:39;;;;;;;10.10;3.20;;;;;;;;;;5028780;28;20038;-63
2022/06/28 03:49:04;;;;;;;15.80;3.35;;;;;;;;;;5028393;28;20392;-63
2022/06/28 03:51:30;;;;;;;4.25;2.88;;;;;;;;;;5032917;28;20068;-61
2022/06/28 03:53:56;;;;;;;7.80;3.20;;;;;;;;;;5041745;28;20084;-62
2022/06/28 03:56:22;;;;;;;7.68;3.28;;;;;;;;;;5027257;28;20056;-63
2022/06/28 03:58:48;;;;;;;7.53;3.17;;;;;;;;;;5028674;28;20406;-61
2022/06/28 04:01:14;;;;;;;12.50;3.20;;;;;;;;;;5034863;28;20077;-62
2022/06/28 04:03:40;;;;;;;10.23;3.20;;;;;;;;;;5033400;28;20033;-61
2022/06/28 04:06:05;;;;;;;4.25;2.92;;;;;;;;;;5032444;28;20360;-61
2022/06/28 04:08:32;;;;;;;6.35;2.92;;;;;;;;;;5030007;28;20464;-61
2022/06/28 04:11:16;;;;;;;7.07;3.03;;;;;;;;;;5031739;28;20128;-61
2022/06/28 04:13:48;;;;;;;8.70;3.35;;;;;;;;;;5030617;28;20053;-62
2022/06/28 04:16:15;;;;;;;12.35;4.00;;;;;;;;;;5030875;28;20053;-62
2022/06/28 04:18:43;;;;;;;9.23;3.30;;;;;;;;;;5032288;28;20192;-61
2022/06/28 04:21:10;;;;;;;6.30;3.40;;;;;;;;;;5026995;28;20187;-63
2022/06/28 04:23:37;;;;;;;9.73;3.38;;;;;;;;;;5025315;28;20494;-63
2022/06/28 04:26:03;;;;;;;10.35;3.92;;;;;;;;;;5031831;28;20397;-61
2022/06/28 04:28:29;;;;;;;7.97;3.72;;;;;;;;;;5030486;28;20049;-61
2022/06/28 04:30:56;;;;;;;9.13;3.55;;;;;;;;;;5030431;28;20054;-61
2022/06/28 04:33:21;;;;;;;10.88;3.97;;;;;;;;;;5030710;28;20059;-62
2022/06/28 04:35:48;;;;;;;12.75;4.40;;;;;;;;;;5034175;28;20045;-64
2022/06/28 04:38:14;;;;;;;8.65;4.38;;;;;;;;;;5034915;28;20077;-62
2022/06/28 04:40:40;;;;;;;9.43;3.67;;;;;;;;;;5033638;28;20269;-61
2022/06/28 04:43:06;;;;;;;8.95;3.80;;;;;;;;;;5031845;28;20049;-61
2022/06/28 04:45:32;;;;;;;8.95;3.40;;;;;;;;;;5032426;28;20132;-62
2022/06/28 04:47:57;;;;;;;10.35;3.60;;;;;;;;;;5030924;28;20056;-62
2022/06/28 04:50:24;;;;;;;8.55;3.33;;;;;;;;;;5035097;28;20049;-63
2022/06/28 04:52:50;;;;;;;8.30;3.78;;;;;;;;;;5037939;28;20057;-62
2022/06/28 04:55:17;;;;;;;6.70;3.72;;;;;;;;;;5033556;28;20029;-61
2022/06/28 04:57:43;;;;;;;12.27;3.40;;;;;;;;;;5031039;28;20543;-63
2022/06/28 05:00:10;;;;;;;13.00;3.70;;;;;;;;;;5034034;28;20079;-65
2022/06/28 05:02:37;;;;;;;10.40;3.70;;;;;;;;;;5033304;28;20048;-61
2022/06/28 05:05:04;;;;;;;8.75;3.60;;;;;;;;;;5032767;28;20045;-62
2022/06/28 05:07:32;;;;;;;8.45;3.65;;;;;;;;;;5031117;28;20093;-61
2022/06/28 05:09:59;;;;;;;15.20;3.65;;;;;;;;;;5031499;28;20049;-63
2022/06/28 05:12:25;;;;;;;9.27;3.55;;;;;;;;;;5019562;28;20081;-62
2022/06/28 05:14:51;;;;;;;10.63;3.38;;;;;;;;;;5058080;28;20065;-63
2022/06/28 05:17:17;;;;;;;11.85;3.70;;;;;;;;;;5036576;28;20045;-63
2022/06/28 05:19:43;;;;;;;10.55;4.07;;;;;;;;;;5030621;28;20121;-61
2022/06/28 05:22:09;;;;;;;7.90;3.40;;;;;;;;;;5028867;28;20113;-60
2022/06/28 05:24:36;;;;;;;5.28;3.15;;;;;;;;;;5033386;28;20041;-62
2022/06/28 05:27:03;;;;;;;6.43;3.15;;;;;;;;;;5025936;28;20556;-62
2022/06/28 05:29:29;;;;;;;9.48;3.58;;;;;;;;;;5030288;28;20088;-61
2022/06/28 05:31:55;;;;;;;11.90;3.35;;;;;;;;;;5029714;28;20049;-61
2022/06/28 05:34:21;;;;;;;6.85;3.40;;;;;;;;;;5029648;28;20499;-63
2022/06/28 05:36:47;;;;;;;10.30;3.25;;;;;;;;;;5029264;28;20446;-63
2022/06/28 05:39:13;;;;;;;6.15;2.92;;;;;;;;;;5027622;28;20491;-62
2022/06/28 05:41:41;;;;;;;9.50;3.42;;;;;;;;;;5025497;28;20080;-62
2022/06/28 05:44:08;;;;;;;7.82;3.17;;;;;;;;;;5029227;28;20468;-61
2022/06/28 05:46:35;;;;;;;9.13;3.25;;;;;;;;;;5028449;28;20050;-62
2022/06/28 05:49:01;;;;;;;9.15;3.40;;;;;;;;;;5028956;28;20448;-62
2022/06/28 05:51:29;;;;;;;5.28;2.75;;;;;;;;;;5028955;28;20045;-62
2022/06/28 05:53:56;;;;;;;7.55;2.90;;;;;;;;;;5029169;28;20053;-62
2022/06/28 05:56:22;;;;;;;11.38;2.80;;;;;;;;;;5021053;28;20134;-63
2022/06/28 05:58:48;;;;;;;6.57;2.67;;;;;;;;;;5028174;28;20041;-63
2022/06/28 06:01:13;;;;;;;11.18;2.47;;;;;;;;;;5027103;28;20033;-62
2022/06/28 06:03:39;;;;;;;6.97;2.80;;;;;;;;;;5027363;28;20081;-68
2022/06/28 06:06:06;;;;;;;6.95;2.17;;;;;;;;;;5030329;28;20577;-63
2022/06/28 06:08:32;;;;;;;3.92;2.30;;;;;;;;;;5029790;28;20095;-63
2022/06/28 06:10:58;;;;;;;4.13;2.10;;;;;;;;;;5022428;28;20212;-62
2022/06/28 06:13:24;;;;;;;6.45;2.35;;;;;;;;;;5023018;28;20566;-62
2022/06/28 06:15:50;;;;;;;6.68;2.35;;;;;;;;;;5026495;28;20038;-62
2022/06/28 06:18:16;;;;;;;13.85;5.38;;;;;;;;;;5027311;28;20593;-62
2022/06/28 06:20:42;;;;;;;14.30;4.45;;;;;;;;;;5029729;28;20132;-62
2022/06/28 06:23:08;;;;;;;9.23;2.65;;;;;;;;;;5030983;28;20518;-61
2022/06/28 06:25:33;;;;;;;9.55;2.78;;;;;;;;;;5030748;28;20491;-62
2022/06/28 06:27:59;;;;;;;5.53;2.33;;;;;;;;;;5028893;28;20495;-63
2022/06/28 06:30:25;;;;;;;8.82;2.65;;;;;;;;;;5029331;28;20037;-65
2022/06/28 06:32:51;;;;;;;7.90;2.70;;;;;;;;;;5028893;28;20057;-63
2022/06/28 06:35:17;;;;;;;10.30;2.40;;;;;;;;;;5029567;28;20033;-62
2022/06/28 06:37:43;;;;;;;11.10;3.13;;;;;;;;;;5027194;28;20045;-63
2022/06/28 06:40:09;;;;;;;8.32;2.80;;;;;;;;;;5027028;28;20388;-63
2022/06/28 06:42:35;;;;;;;14.32;3.10;;;;;;;;;;5022661;28;20046;-61
2022/06/28 06:45:01;;;;;;;10.48;3.22;;;;;;;;;;5025649;28;20072;-63
2022/06/28 06:47:27;;;;;;;11.02;3.45;;;;;;;;;;5028407;28;20128;-62
2022/06/28 06:49:52;;;;;;;10.13;3.50;;;;;;;;;;5026219;28;20133;-64
2022/06/28 06:52:18;;;;;;;8.77;3.97;;;;;;;;;;5029137;28;20077;-63
2022/06/28 06:54:44;;;;;;;11.18;3.97;;;;;;;;;;5032488;28;20080;-62
2022/06/28 06:57:10;;;;;;;10.20;4.20;;;;;;;;;;5024192;28;20057;-63
2022/06/28 06:59:36;;;;;;;11.55;4.15;;;;;;;;;;5029302;28;20049;-64
2022/06/28 07:02:02;;;;;;;9.85;3.70;;;;;;;;;;5028690;28;20138;-62
2022/06/28 07:04:28;;;;;;;5.78;3.60;;;;;;;;;;5029599;28;20045;-65
2022/06/28 07:06:55;;;;;;;8.50;3.65;;;;;;;;;;5028692;28;20064;-61
2022/06/28 07:09:23;;;;;;;6.82;3.80;;;;;;;;;;5027075;28;20053;-63
2022/06/28 07:11:49;;;;;;;7.30;3.88;;;;;;;;;;5027993;28;20042;-66
2022/06/28 07:14:15;;;;;;;9.02;3.70;;;;;;;;;;5029577;28;20045;-66
2022/06/28 07:16:41;;;;;;;7.32;3.63;;;;;;;;;;5037919;28;20079;-63
2022/06/28 07:19:07;;;;;;;13.98;3.80;;;;;;;;;;5030949;28;20136;-61
2022/06/28 07:21:32;;;;;;;10.90;4.30;;;;;;;;;;5026086;28;20263;-60
2022/06/28 07:23:58;;;;;;;8.40;3.78;;;;;;;;;;5028668;28;20117;-64
2022/06/28 07:26:24;;;;;;;13.52;3.65;;;;;;;;;;5019820;28;20136;-62
2022/06/28 07:28:50;;;;;;;13.13;3.80;;;;;;;;;;5025593;28;20041;-63
2022/06/28 07:31:16;;;;;;;9.63;3.28;;;;;;;;;;5025760;28;20092;-65
2022/06/28 07:33:42;;;;;;;11.45;3.58;;;;;;;;;;5021483;28;20089;-63
2022/06/28 07:36:08;;;;;;;9.27;3.50;;;;;;;;;;5023420;28;20049;-62
2022/06/28 07:38:34;;;;;;;6.70;3.35;;;;;;;;;;5025270;28;20563;-64
2022/06/28 07:41:00;;;;;;;6.60;3.17;;;;;;;;;;5021242;28;20050;-63
2022/06/28 07:43:26;;;;;;;10.77;3.00;;;;;;;;;;5025284;28;20100;-66
2022/06/28 07:45:52;;;;;;;5.40;2.55;;;;;;;;;;5024970;28;20869;-64
2022/06/28 07:48:19;;;;;;;7.00;2.83;;;;;;;;;;5024625;28;20046;-63
2022/06/28 07:53:33;;;;;;;9.40;2.58;;;;;;;;;;5021862;28;20057;-64
2022/06/28 07:56:00;;;;;;;6.43;2.78;;;;;;;;;;5025329;28;20151;-63
2022/06/28 07:58:26;;;;;;;5.90;2.78;;;;;;;;;;5025509;28;20050;-63
2022/06/28 08:00:52;;;;;;;9.35;2.95;;;;;;;;;;5020486;28;20422;-64
2022/06/28 08:03:18;;;;;;;9.57;2.53;;;;;;;;;;5014184;28;20046;-63
2022/06/28 08:05:43;;;;;;;10.55;2.80;;;;;;;;;;5024235;28;20045;-65
2022/06/28 08:08:10;;;;;;;9.07;2.75;;;;;;;;;;5026509;28;20065;-70
2022/06/28 08:10:38;;;;;;;10.50;2.60;;;;;;;;;;5027478;28;20527;-64
2022/06/28 08:13:04;;;;;;;5.60;2.22;;;;;;;;;;5024956;28;20057;-65
2022/06/28 08:15:30;;;;;;;16.65;2.25;;;;;;;;;;5025952;28;20119;-64
2022/06/28 08:17:56;;;;;;;10.02;2.65;;;;;;;;;;5022296;28;20045;-68
2022/06/28 08:20:22;;;;;;;4.25;1.92;;;;;;;;;;5023954;28;20050;-62
2022/06/28 08:22:54;;;;;;;7.45;2.30;;;;;;;;;;5024136;28;20106;-63
2022/06/28 08:25:20;;;;;;;4.70;2.17;;;;;;;;;;5023858;28;20084;-64
2022/06/28 08:27:46;;;;;;;8.63;2.30;;;;;;;;;;5025247;28;20180;-66
2022/06/28 08:30:12;;;;;;;8.13;2.10;;;;;;;;;;5023853;28;20041;-66
2022/06/28 08:32:38;;;;;;;6.65;2.00;;;;;;;;;;5024615;28;20105;-65
2022/06/28 08:35:04;;;;;;;8.73;2.25;;;;;;;;;;5022968;28;20072;-65
2022/06/28 08:37:30;;;;;;;10.18;2.10;;;;;;;;;;5025217;28;20450;-65
2022/06/28 08:39:56;;;;;;;5.35;1.90;;;;;;;;;;5027981;28;20064;-66
2022/06/28 08:42:26;;;;;;;5.90;2.00;;;;;;;;;;5023060;28;20049;-65
2022/06/28 08:44:53;;;;;;;7.22;1.92;;;;;;;;;;5041774;28;20637;-66
2022/06/28 08:47:21;;;;;;;4.43;1.60;;;;;;;;;;5029605;28;20395;-65
2022/06/28 08:50:07;;;;;;;9.93;1.70;;;;;;;;;;5030118;28;20479;-66
2022/06/28 08:52:37;;;;;;;4.13;1.75;;;;;;;;;;5026453;28;20176;-63
2022/06/28 08:55:06;;;;;;;9.45;2.03;;;;;;;;;;5017484;28;20140;-64
2022/06/28 08:57:35;;;;;;;4.72;1.95;;;;;;;;;;5027956;28;20460;-66
2022/06/28 09:00:07;;;;;;;9.52;1.90;;;;;;;;;;5028328;28;20048;-66
2022/06/28 09:02:34;;;;;;;6.50;1.58;;;;;;;;;;5026883;28;20045;-65
2022/06/28 09:05:00;;;;;;;5.63;1.77;;;;;;;;;;5030984;28;20515;-65
2022/06/28 09:07:28;;;;;;;8.10;1.88;;;;;;;;;;5031072;28;20107;-65
2022/06/28 09:09:54;;;;;;;8.65;2.00;;;;;;;;;;5031962;28;20045;-66
2022/06/28 09:12:20;;;;;;;7.70;1.48;;;;;;;;;;5030342;28;20130;-66
2022/06/28 09:14:47;;;;;;;7.00;1.50;;;;;;;;;;5027126;28;20088;-64
2022/06/28 09:17:31;;;;;;;11.35;1.48;;;;;;;;;;5028712;28;20037;-63
2022/06/28 09:20:07;;;;;;;5.68;1.60;;;;;;;;;;5026438;28;20425;-65
2022/06/28 09:22:36;;;;;;;7.13;1.98;;;;;;;;;;5027433;28;20077;-64
2022/06/28 09:25:23;;;;;;;5.13;1.88;;;;;;;;;;5031919;28;20073;-64
2022/06/28 09:27:49;;;;;;;4.57;1.60;;;;;;;;;;5029079;28;20136;-68
2022/06/28 09:30:15;;;;;;;4.60;1.40;;;;;;;;;;5025523;28;20037;-67
2022/06/28 09:32:41;;;;;;;10.13;2.38;;;;;;;;;;5032427;28;20063;-66
2022/06/28 09:35:10;;;;;;;5.28;1.80;;;;;;;;;;5030650;28;20044;-65
2022/06/28 09:40:15;;;;;;;6.65;2.58;;;;;;;;;;5029908;28;20052;-65
2022/06/28 09:42:43;;;;;;;7.13;1.73;;;;;;;;;;5019669;28;20522;-64
2022/06/28 09:45:10;;;;;;;4.13;1.52;;;;;;;;;;5030112;28;20051;-65
2022/06/28 09:47:46;;;;;;;4.97;1.58;;;;;;;;;;5027554;28;20103;-67
2022/06/28 09:50:17;;;;;;;6.22;1.20;;;;;;;;;;5028744;28;20483;-64
2022/06/28 09:52:44;;;;;;;9.48;1.90;;;;;;;;;;5028172;28;20446;-65
2022/06/28 09:55:11;;;;;;;5.63;1.70;;;;;;;;;;5028651;28;20099;-65
2022/06/28 09:57:37;;;;;;;5.55;1.30;;;;;;;;;;5027710;28;20053;-66
2022/06/28 10:00:04;;;;;;;4.40;1.33;;;;;;;;;;5028701;28;20069;-66
2022/06/28 10:02:30;;;;;;;6.05;1.15;;;;;;;;;;5023863;28;20079;-65
2022/06/28 10:05:00;;;;;;;4.57;1.40;;;;;;;;;;5027805;28;20051;-67
2022/06/28 10:07:36;;;;;;;5.88;1.30;;;;;;;;;;5024983;28;20557;-65
2022/06/28 10:10:06;;;;;;;4.88;1.27;;;;;;;;;;5027829;28;20106;-67
2022/06/28 10:15:32;;;;;;;6.32;1.58;;;;;;;;;;5025234;28;20057;-64
2022/06/28 10:18:03;;;;;;;9.85;1.92;;;;;;;;;;5018124;28;20041;-67
2022/06/28 10:20:30;;;;;;;7.68;2.03;;;;;;;;;;5024423;28;20061;-66
2022/06/28 10:23:24;;;;;;;7.57;2.13;;;;;;;;;;5027312;28;20550;-70
2022/06/28 10:26:13;;;;;;;6.45;1.77;;;;;;;;;;5023331;28;20517;-70
2022/06/28 10:28:41;;;;;;;8.50;1.50;;;;;;;;;;5023037;28;20053;-66
2022/06/28 10:31:25;;;;;;;4.88;1.60;;;;;;;;;;5027567;28;20042;-68
2022/06/28 10:33:56;;;;;;;5.13;1.88;;;;;;;;;;5024885;28;20060;-67
2022/06/28 10:36:30;;;;;;;6.25;2.20;;;;;;;;;;5023084;28;20106;-65
2022/06/28 10:39:08;;;;;;;11.20;2.17;;;;;;;;;;5026402;28;20078;-66
2022/06/28 10:41:46;;;;;;;11.80;2.47;;;;;;;;;;5015211;28;20049;-66
2022/06/28 10:44:26;;;;;;;6.90;2.30;;;;;;;;;;5026899;28;20049;-68
2022/06/28 10:47:10;;;;;;;5.03;1.90;;;;;;;;;;5024833;28;20050;-68
2022/06/28 10:49:57;;;;;;;11.25;1.83;;;;;;;;;;5026425;28;20049;-66
2022/06/28 10:52:34;;;;;;;5.57;1.60;;;;;;;;;;5025193;28;20363;-69
2022/06/28 10:54:59;;;;;;;6.15;1.90;;;;;;;;;;5029054;28;20477;-66
2022/06/28 10:57:34;;;;;;;6.97;1.90;;;;;;;;;;5027260;28;20389;-65
2022/06/28 11:00:05;;;;;;;5.55;1.90;;;;;;;;;;5028330;28;20068;-68
2022/06/28 11:02:59;;;;;;;6.55;2.10;;;;;;;;;;5027818;28;20518;-67
2022/06/28 11:05:54;;;;;;;7.00;2.05;;;;;;;;;;5029664;28;20103;-65
2022/06/28 11:08:48;;;;;;;6.88;1.95;;;;;;;;;;5020837;28;20128;-67
2022/06/28 11:11:14;;;;;;;8.00;2.00;;;;;;;;;;5025212;28;20119;-67
2022/06/28 11:13:40;;;;;;;5.47;1.70;;;;;;;;;;5022714;28;20085;-68
2022/06/28 11:16:10;;;;;;;6.70;2.00;;;;;;;;;;5027051;28;20068;-69
2022/06/28 11:18:36;;;;;;;3.42;1.60;;;;;;;;;;5025939;28;20146;-70
2022/06/28 11:21:02;;;;;;;6.20;1.90;;;;;;;;;;5025480;28;20050;-66
2022/06/28 11:23:30;;;;;;;4.50;1.75;;;;;;;;;;5017544;28;20564;-67
2022/06/28 11:28:59;;;;;;;6.35;2.22;;;;;;;;;;5023081;28;20115;-68
2022/06/28 11:31:27;;;;;;;7.75;1.50;;;;;;;;;;5025385;28;20053;-62
2022/06/28 11:33:53;;;;;;;7.10;1.60;;;;;;;;;;5024971;28;20091;-68
2022/06/28 11:36:22;;;;;;;7.50;1.60;;;;;;;;;;5027956;28;20057;-64
2022/06/28 11:38:48;;;;;;;8.00;3.58;;;;;;;;;;5027158;28;20046;-67
2022/06/28 11:41:28;;;;;;;7.80;1.60;;;;;;;;;;5013720;28;20045;-66
2022/06/28 11:43:58;;;;;;;4.50;1.70;;;;;;;;;;5025885;28;20060;-66
2022/06/28 11:46:26;;;;;;;6.40;1.80;;;;;;;;;;5025263;28;20052;-65
2022/06/28 11:48:53;;;;;;;5.07;1.60;;;;;;;;;;5026567;28;20573;-65
2022/06/28 11:51:28;;;;;;;3.20;1.40;;;;;;;;;;5024002;28;20073;-63
2022/06/28 11:53:55;;;;;;;3.38;1.80;;;;;;;;;;5024857;28;20054;-65
2022/06/28 11:56:21;;;;;;;6.95;1.40;;;;;;;;;;5030936;28;20046;-66
2022/06/28 11:58:47;;;;;;;7.00;1.52;;;;;;;;;;5030452;28;20092;-65
2022/06/28 12:01:16;;;;;;;4.38;1.52;;;;;;;;;;5028287;28;20048;-64
2022/06/28 12:03:41;;;;;;;7.40;2.03;;;;;;;;;;5025712;28;20127;-66
2022/06/28 12:06:20;;;;;;;3.05;1.35;;;;;;;;;;5028995;28;20077;-68
2022/06/28 12:08:49;;;;;;;3.80;1.52;;;;;;;;;;5028276;28;20056;-66
2022/06/28 12:11:58;;;;;;;5.05;1.33;;;;;;;;;;5025936;28;20041;-66
2022/06/28 12:14:32;;;;;;;3.83;1.27;;;;;;;;;;5028731;28;20092;-69
2022/06/28 12:17:00;;;;;;;3.05;1.40;;;;;;;;;;5034111;28;20081;-66
2022/06/28 12:19:34;;;;;;;7.80;1.75;;;;;;;;;;5028347;28;20053;-72
2022/06/28 12:22:12;;;;;;;8.55;2.13;;;;;;;;;;5031563;28;20235;-66
2022/06/28 12:24:39;;;;;;;6.78;1.90;;;;;;;;;;5030971;28;20052;-74
2022/06/28 12:27:05;;;;;;;3.22;1.45;;;;;;;;;;5032126;28;20562;-69
2022/06/28 12:29:31;;;;;;;7.18;1.88;;;;;;;;;;5027998;28;20533;-69
2022/06/28 12:31:57;;;;;;;5.97;2.22;;;;;;;;;;5030134;28;20075;-68
2022/06/28 12:34:23;;;;;;;6.60;1.70;;;;;;;;;;5031449;28;20629;-71
2022/06/28 12:36:49;;;;;;;4.60;1.70;;;;;;;;;;5029671;28;20069;-71
2022/06/28 12:39:15;;;;;;;7.28;1.85;;;;;;;;;;5027709;28;20113;-70
2022/06/28 12:41:41;;;;;;;5.68;1.70;;;;;;;;;;5026743;28;20163;-69
2022/06/28 12:44:07;;;;;;;6.70;2.17;;;;;;;;;;5030602;28;20037;-66
2022/06/28 12:46:33;;;;;;;6.70;1.75;;;;;;;;;;5029650;28;20125;-69
2022/06/28 12:49:00;;;;;;;6.88;2.00;;;;;;;;;;5028270;28;20076;-72
2022/06/28 12:51:26;;;;;;;7.15;1.92;;;;;;;;;;5032266;28;20514;-70
2022/06/28 12:53:52;;;;;;;4.07;2.17;;;;;;;;;;5031194;28;20064;-70
2022/06/28 12:56:18;;;;;;;7.13;2.03;;;;;;;;;;5030264;28;20045;-67
2022/06/28 12:58:45;;;;;;;5.35;1.90;;;;;;;;;;5021152;28;20045;-70
2022/06/28 13:01:12;;;;;;;4.32;1.90;;;;;;;;;;5029659;28;20124;-69
2022/06/28 13:03:39;;;;;;;5.60;1.90;;;;;;;;;;5027099;28;20075;-69
2022/06/28 13:06:06;;;;;;;10.68;2.53;;;;;;;;;;5020441;28;20053;-67
2022/06/28 13:08:32;;;;;;;5.78;1.52;;;;;;;;;;5030583;28;20132;-68
2022/06/28 13:10:58;;;;;;;5.80;1.50;;;;;;;;;;5030344;28;20148;-68
2022/06/28 13:13:24;;;;;;;5.40;1.60;;;;;;;;;;5028706;28;20053;-71
2022/06/28 13:15:50;;;;;;;5.18;1.30;;;;;;;;;;5029506;28;20053;-66
2022/06/28 13:18:16;;;;;;;8.48;1.40;;;;;;;;;;5029022;28;20055;-70
2022/06/28 13:20:44;;;;;;;5.55;1.17;;;;;;;;;;5031593;28;20084;-68
2022/06/28 13:23:10;;;;;;;3.55;1.10;;;;;;;;;;5016365;28;20495;-68
2022/06/28 13:25:38;;;;;;;4.25;1.25;;;;;;;;;;5032089;28;20052;-67
2022/06/28 13:28:04;;;;;;;7.78;1.20;;;;;;;;;;5028284;28;20422;-66
2022/06/28 13:30:30;;;;;;;4.30;1.38;;;;;;;;;;5028500;28;20132;-67
2022/06/28 13:32:56;;;;;;;7.00;1.00;;;;;;;;;;5024619;28;20523;-68
2022/06/28 13:35:21;;;;;;;2.28;1.00;;;;;;;;;;5025138;28;20508;-67
2022/06/28 13:37:47;;;;;;;5.50;1.40;;;;;;;;;;5029351;28;20054;-68
2022/06/28 13:40:14;;;;;;;6.85;1.70;;;;;;;;;;5039816;28;20096;-68
2022/06/28 13:42:40;;;;;;;5.40;1.35;;;;;;;;;;5026252;28;20045;-68
2022/06/28 13:45:08;;;;;;;5.15;1.30;;;;;;;;;;5029836;28;20441;-70
2022/06/28 13:47:35;;;;;;;2.90;1.10;;;;;;;;;;5028883;28;20062;-68
2022/06/28 13:50:01;;;;;;;4.70;1.10;;;;;;;;;;5026777;28;20053;-70
2022/06/28 13:52:27;;;;;;;6.97;1.48;;;;;;;;;;5029576;28;20065;-68
2022/06/28 13:54:53;;;;;;;2.70;1.10;;;;;;;;;;5030106;28;20517;-70
2022/06/28 13:57:19;;;;;;;7.97;1.70;;;;;;;;;;5031788;28;20045;-67
2022/06/28 13:59:48;;;;;;;5.25;1.27;;;;;;;;;;5030423;28;20277;-66
2022/06/28 14:02:14;;;;;;;8.20;1.60;;;;;;;;;;5028540;28;20053;-71
2022/06/28 14:04:40;;;;;;;5.85;1.38;;;;;;;;;;5029923;28;20400;-70
2022/06/28 14:07:06;;;;;;;4.05;1.40;;;;;;;;;;5025660;28;20069;-70
2022/06/28 14:09:32;;;;;;;14.05;1.83;;;;;;;;;;5029257;28;20046;-69
2022/06/28 14:11:59;;;;;;;9.07;2.25;;;;;;;;;;5028317;28;20545;-68
2022/06/28 14:14:26;;;;;;;9.70;2.28;;;;;;;;;;5029542;28;20061;-69
2022/06/28 14:16:51;;;;;;;12.35;1.85;;;;;;;;;;5028475;28;20410;-70
2022/06/28 14:19:17;;;;;;;4.32;1.45;;;;;;;;;;5024836;28;20045;-68
2022/06/28 14:21:43;;;;;;;5.53;1.35;;;;;;;;;;5029667;28;20060;-70
2022/06/28 14:24:10;;;;;;;6.28;1.50;;;;;;;;;;5028237;28;20055;-70
2022/06/28 14:26:36;;;;;;;6.13;1.23;;;;;;;;;;5023361;28;20072;-69
2022/06/28 14:29:02;;;;;;;6.95;1.42;;;;;;;;;;5029211;28;20041;-68
2022/06/28 14:31:29;;;;;;;3.53;1.10;;;;;;;;;;5028785;28;20076;-70
2022/06/28 14:33:55;;;;;;;4.70;1.30;;;;;;;;;;5029056;28;20081;-74
2022/06/28 14:36:22;;;;;;;6.68;1.30;;;;;;;;;;5029315;28;20054;-68
2022/06/28 14:38:48;;;;;;;8.75;1.33;;;;;;;;;;5028387;28;20572;-68
2022/06/28 14:41:14;;;;;;;7.30;1.77;;;;;;;;;;5022709;28;20063;-70
2022/06/28 14:43:40;;;;;;;3.47;1.27;;;;;;;;;;5026541;28;20057;-68
2022/06/28 14:46:06;;;;;;;5.38;1.50;;;;;;;;;;5016407;28;20050;-69
2022/06/28 14:48:32;;;;;;;7.22;1.65;;;;;;;;;;5020801;28;20056;-67
2022/06/28 14:50:58;;;;;;;5.82;1.35;;;;;;;;;;5015776;28;20124;-69
2022/06/28 14:53:25;;;;;;;4.10;1.10;;;;;;;;;;5015058;28;20489;-68
2022/06/28 14:55:52;;;;;;;4.20;1.35;;;;;;;;;;5020291;28;20171;-71
2022/06/28 14:58:19;;;;;;;8.38;1.52;;;;;;;;;;5018071;28;20084;-68
2022/06/28 15:00:46;;;;;;;8.38;1.58;;;;;;;;;;5016423;28;20042;-67
2022/06/28 15:03:12;;;;;;;6.75;1.70;;;;;;;;;;5012434;28;20437;-66